createdAt,value
2022-12-24T00:00:09.486Z,86.64
2022-12-24T00:02:36.164Z,86.52
2022-12-24T00:05:02.846Z,86.53
2022-12-24T00:07:29.881Z,87.21
2022-12-24T00:09:56.393Z,87.52
2022-12-24T00:12:23.056Z,87.27
2022-12-24T00:14:49.722Z,87.86
2022-12-24T00:17:16.352Z,87.77
2022-12-24T00:19:43.313Z,88.14
2022-12-24T00:22:09.842Z,87.95
2022-12-24T00:24:36.327Z,87.99
2022-12-24T00:27:03.571Z,88.58
2022-12-24T00:29:30.062Z,88.93
2022-12-24T00:31:56.487Z,90.84
2022-12-24T00:34:24.313Z,93.16
2022-12-24T00:36:51.245Z,95.45
2022-12-24T00:39:17.813Z,95.46
2022-12-24T00:41:44.565Z,96.81
2022-12-24T00:44:11.892Z,97.16
2022-12-24T00:46:40.468Z,97.32
2022-12-24T00:49:07.787Z,97.19
2022-12-24T00:51:35.678Z,97.06
2022-12-24T00:54:02.278Z,96.66
2022-12-24T00:56:29.030Z,96.84
2022-12-24T00:58:55.609Z,97.45
2022-12-24T01:01:22.997Z,98.17
2022-12-24T01:03:51.047Z,98.36
2022-12-24T01:06:21.304Z,98.56
2022-12-24T01:08:51.559Z,99.12
2022-12-24T01:11:18.613Z,98.76
2022-12-24T01:13:45.067Z,99.20
2022-12-24T01:16:20.975Z,98.53
2022-12-24T01:18:48.730Z,98.14
2022-12-24T01:21:15.926Z,97.68
2022-12-24T01:23:42.660Z,97.08
2022-12-24T01:26:12.281Z,96.34
2022-12-24T01:28:38.868Z,96.03
2022-12-24T01:31:17.108Z,94.76
2022-12-24T01:33:45.234Z,94.54
2022-12-24T01:36:12.708Z,94.49
2022-12-24T01:38:39.812Z,93.92
2022-12-24T01:41:25.127Z,93.88
2022-12-24T01:43:51.601Z,93.50
2022-12-24T01:46:28.024Z,93.17
2022-12-24T01:48:57.886Z,93.04
2022-12-24T01:51:29.690Z,92.72
2022-12-24T01:54:05.659Z,92.73
2022-12-24T01:56:33.144Z,92.65
2022-12-24T01:59:06.714Z,92.72
2022-12-24T02:01:33.723Z,92.36
2022-12-24T02:04:05.396Z,92.70
2022-12-24T02:06:31.887Z,92.56
2022-12-24T02:08:58.338Z,92.59
2022-12-24T02:11:24.851Z,92.57
2022-12-24T02:13:57.791Z,92.26
2022-12-24T02:16:27.105Z,92.29
2022-12-24T02:19:04.495Z,92.06
2022-12-24T02:21:52.212Z,92.24
2022-12-24T02:24:30.847Z,92.36
2022-12-24T02:27:15.679Z,92.69
2022-12-24T02:29:51.332Z,92.72
2022-12-24T02:32:33.622Z,92.91
2022-12-24T02:35:12.217Z,92.90
2022-12-24T02:37:44.878Z,93.12
2022-12-24T02:40:17.183Z,93.36
2022-12-24T02:42:49.107Z,93.37
2022-12-24T02:45:20.341Z,93.57
2022-12-24T02:47:48.659Z,93.49
2022-12-24T02:50:16.847Z,93.75
2022-12-24T02:52:45.705Z,93.62
2022-12-24T02:55:36.919Z,93.70
2022-12-24T02:58:22.371Z,94.14
2022-12-24T03:01:16.609Z,94.71
2022-12-24T03:04:01.606Z,95.27
2022-12-24T03:06:57.433Z,95.39
2022-12-24T03:09:36.727Z,95.52
2022-12-24T03:12:12.184Z,95.58
2022-12-24T03:14:41.370Z,95.77
2022-12-24T03:17:09.303Z,95.85
2022-12-24T03:19:36.356Z,97.21
2022-12-24T03:22:07.488Z,97.59
2022-12-24T03:24:33.942Z,98.69
2022-12-24T03:27:01.351Z,99.20
2022-12-24T03:29:27.943Z,99.81
2022-12-24T03:32:01.184Z,99.99
2022-12-24T03:34:27.780Z,99.59
2022-12-24T03:36:54.258Z,99.27
2022-12-24T03:39:20.776Z,99.23
2022-12-24T03:41:47.626Z,99.05
2022-12-24T03:44:14.453Z,98.93
2022-12-24T03:46:41.064Z,98.74
2022-12-24T03:49:07.795Z,98.18
2022-12-24T03:51:34.329Z,97.80
2022-12-24T03:54:00.875Z,97.38
2022-12-24T03:56:27.409Z,97.16
2022-12-24T03:58:53.905Z,96.63
2022-12-24T04:01:20.614Z,96.10
2022-12-24T04:03:47.155Z,96.27
2022-12-24T04:06:17.720Z,95.55
2022-12-24T04:08:46.599Z,94.90
2022-12-24T04:11:16.050Z,95.07
2022-12-24T04:13:42.871Z,95.12
2022-12-24T04:16:12.333Z,95.21
2022-12-24T04:18:40.253Z,95.23
2022-12-24T04:21:07.539Z,95.25
2022-12-24T04:23:35.831Z,95.55
2022-12-24T04:26:04.116Z,95.50
2022-12-24T04:28:32.419Z,95.89
2022-12-24T04:31:03.574Z,96.17
2022-12-24T04:33:30.298Z,96.45
2022-12-24T04:36:01.672Z,96.80
2022-12-24T04:38:29.141Z,97.16
2022-12-24T04:41:23.779Z,97.14
2022-12-24T04:43:53.982Z,97.02
2022-12-24T04:46:24.341Z,97.42
2022-12-24T04:48:52.503Z,97.16
2022-12-24T04:51:19.847Z,97.14
2022-12-24T04:53:47.649Z,97.42
2022-12-24T04:56:17.440Z,97.63
2022-12-24T04:58:44.499Z,97.64
2022-12-24T05:01:17.988Z,97.39
2022-12-24T05:03:45.021Z,97.43
2022-12-24T05:06:14.147Z,97.50
2022-12-24T05:08:41.044Z,97.42
2022-12-24T05:11:08.607Z,97.66
2022-12-24T05:13:44.166Z,98.04
2022-12-24T05:16:14.826Z,98.05
2022-12-24T05:18:41.536Z,97.97
2022-12-24T05:21:16.602Z,98.43
2022-12-24T05:24:02.378Z,98.76
2022-12-24T05:26:49.259Z,99.02
2022-12-24T05:29:16.009Z,98.76
2022-12-24T05:31:43.656Z,99.15
2022-12-24T05:34:10.643Z,99.30
2022-12-24T05:36:37.213Z,99.24
2022-12-24T05:39:07.217Z,99.40
2022-12-24T05:41:36.503Z,99.18
2022-12-24T05:44:02.993Z,99.53
2022-12-24T05:46:29.505Z,99.42
2022-12-24T05:48:56.020Z,99.23
2022-12-24T05:51:23.650Z,98.88
2022-12-24T05:53:52.138Z,98.88
2022-12-24T05:56:23.997Z,98.78
2022-12-24T05:58:52.079Z,98.63
2022-12-24T06:01:18.795Z,98.32
2022-12-24T06:03:45.475Z,98.33
2022-12-24T06:06:14.677Z,98.07
2022-12-24T06:08:42.433Z,98.01
2022-12-24T06:11:11.585Z,97.75
2022-12-24T06:13:39.239Z,97.77
2022-12-24T06:16:07.662Z,97.55
2022-12-24T06:18:35.862Z,97.50
2022-12-24T06:21:03.361Z,97.46
2022-12-24T06:23:31.444Z,97.34
2022-12-24T06:26:01.374Z,97.30
2022-12-24T06:28:32.541Z,97.22
2022-12-24T06:31:03.128Z,97.30
2022-12-24T06:33:32.117Z,97.24
2022-12-24T06:35:58.747Z,97.09
2022-12-24T06:38:25.552Z,96.92
2022-12-24T06:40:52.269Z,96.66
2022-12-24T06:43:18.840Z,96.28
2022-12-24T06:45:47.586Z,96.09
2022-12-24T06:48:15.305Z,95.81
2022-12-24T06:50:42.356Z,95.55
2022-12-24T06:53:09.871Z,94.97
2022-12-24T06:55:36.401Z,94.38
2022-12-24T06:58:03.543Z,94.07
2022-12-24T07:00:30.099Z,93.85
2022-12-24T07:02:56.645Z,93.89
2022-12-24T07:05:23.177Z,93.82
2022-12-24T07:07:49.671Z,93.83
2022-12-24T07:10:18.079Z,93.94
2022-12-24T07:12:45.068Z,94.33
2022-12-24T07:15:12.758Z,94.24
2022-12-24T07:17:39.283Z,94.49
2022-12-24T07:20:07.287Z,94.51
2022-12-24T07:22:33.898Z,94.45
2022-12-24T07:25:00.345Z,94.65
2022-12-24T07:27:28.077Z,94.46
2022-12-24T07:29:54.536Z,94.84
2022-12-24T07:32:21.281Z,94.59
2022-12-24T07:34:50.076Z,94.52
2022-12-24T07:37:16.788Z,94.87
2022-12-24T07:39:43.310Z,94.51
2022-12-24T07:42:09.802Z,94.96
2022-12-24T07:44:36.434Z,94.91
2022-12-24T07:47:03.069Z,94.90
2022-12-24T07:49:29.782Z,94.71
2022-12-24T07:51:56.414Z,94.82
2022-12-24T07:54:26.138Z,94.78
2022-12-24T07:56:52.676Z,94.33
2022-12-24T07:59:19.203Z,94.25
2022-12-24T08:01:46.729Z,94.18
2022-12-24T08:04:13.559Z,93.95
2022-12-24T08:06:41.498Z,93.85
2022-12-24T08:09:08.068Z,93.89
2022-12-24T08:11:34.594Z,93.62
2022-12-24T08:14:01.187Z,93.90
2022-12-24T08:16:27.946Z,93.41
2022-12-24T08:18:55.879Z,93.41
2022-12-24T08:21:22.367Z,93.29
2022-12-24T08:23:48.911Z,93.37
2022-12-24T08:26:15.824Z,93.24
2022-12-24T08:28:42.551Z,93.25
2022-12-24T08:31:09.133Z,93.54
2022-12-24T08:33:35.694Z,93.10
2022-12-24T08:36:03.029Z,92.65
2022-12-24T08:38:29.840Z,92.89
2022-12-24T08:40:56.405Z,92.63
2022-12-24T08:43:23.021Z,92.59
2022-12-24T08:45:50.086Z,92.58
2022-12-24T08:48:17.369Z,92.59
2022-12-24T08:50:44.105Z,93.07
2022-12-24T08:53:11.099Z,92.74
2022-12-24T08:55:37.759Z,92.91
2022-12-24T08:58:04.606Z,92.69
2022-12-24T09:00:31.257Z,92.89
2022-12-24T09:02:58.005Z,92.92
2022-12-24T09:05:26.071Z,92.93
2022-12-24T09:07:53.199Z,93.02
2022-12-24T09:10:19.889Z,93.09
2022-12-24T09:12:46.693Z,92.95
2022-12-24T09:15:14.653Z,93.11
2022-12-24T09:17:41.799Z,93.49
2022-12-24T09:20:09.370Z,93.45
2022-12-24T09:22:37.826Z,93.82
2022-12-24T09:25:06.252Z,93.83
2022-12-24T09:27:32.804Z,93.96
2022-12-24T09:29:59.279Z,94.20
2022-12-24T09:32:25.727Z,93.97
2022-12-24T09:34:52.217Z,93.83
2022-12-24T09:37:19.075Z,93.57
2022-12-24T09:39:45.615Z,93.82
2022-12-24T09:42:51.268Z,93.52
2022-12-24T09:45:35.194Z,93.53
2022-12-24T09:48:14.108Z,93.32
2022-12-24T09:50:51.616Z,93.79
2022-12-24T09:53:38.667Z,92.86
2022-12-24T09:56:13.440Z,92.36
2022-12-24T09:58:45.768Z,92.91
2022-12-24T10:01:14.393Z,92.70
2022-12-24T10:03:41.320Z,92.34
2022-12-24T10:06:10.412Z,92.55
2022-12-24T10:08:39.642Z,92.56
2022-12-24T10:11:12.801Z,92.35
2022-12-24T10:13:48.443Z,92.40
2022-12-24T10:16:26.921Z,92.56
2022-12-24T10:19:05.548Z,92.11
2022-12-24T10:21:48.418Z,91.90
2022-12-24T10:24:25.701Z,92.26
2022-12-24T10:27:16.319Z,91.79
2022-12-24T10:29:47.743Z,91.48
2022-12-24T10:32:22.138Z,92.00
2022-12-24T10:34:57.840Z,91.86
2022-12-24T10:37:28.610Z,91.84
2022-12-24T10:40:00.362Z,91.49
2022-12-24T10:42:50.261Z,91.50
2022-12-24T10:45:21.702Z,90.80
2022-12-24T10:47:52.775Z,91.38
2022-12-24T10:50:28.837Z,90.75
2022-12-24T10:53:02.442Z,90.37
2022-12-24T10:55:28.885Z,90.25
2022-12-24T10:58:04.983Z,90.42
2022-12-24T11:00:36.342Z,90.00
2022-12-24T11:03:11.729Z,90.29
2022-12-24T11:05:39.358Z,89.78
2022-12-24T11:08:15.851Z,90.02
2022-12-24T11:10:56.779Z,90.18
2022-12-24T11:13:37.502Z,89.85
2022-12-24T11:16:05.733Z,89.66
2022-12-24T11:18:38.918Z,89.57
2022-12-24T11:21:06.278Z,89.08
2022-12-24T11:23:33.049Z,89.06
2022-12-24T11:25:59.773Z,88.61
2022-12-24T11:28:29.738Z,88.69
2022-12-24T11:31:04.024Z,88.45
2022-12-24T11:33:32.140Z,87.90
2022-12-24T11:36:06.625Z,87.84
2022-12-24T11:38:35.037Z,87.53
2022-12-24T11:41:12.073Z,88.24
2022-12-24T11:43:44.730Z,87.32
2022-12-24T11:46:20.736Z,86.88
2022-12-24T11:48:48.208Z,86.94
2022-12-24T11:51:26.662Z,87.08
2022-12-24T11:54:04.453Z,86.93
2022-12-24T11:56:51.208Z,87.29
2022-12-24T11:59:43.415Z,86.84
2022-12-24T12:02:33.216Z,86.57
2022-12-24T12:05:08.752Z,86.61
2022-12-24T12:07:37.976Z,86.52
2022-12-24T12:10:25.859Z,85.95
2022-12-24T12:13:03.893Z,86.55
2022-12-24T12:15:39.074Z,86.46
2022-12-24T12:18:14.880Z,85.44
2022-12-24T12:20:45.718Z,84.72
2022-12-24T12:23:17.946Z,85.75
2022-12-24T12:26:00.201Z,84.75
2022-12-24T12:28:56.976Z,84.71
2022-12-24T12:31:35.970Z,83.74
2022-12-24T12:34:15.425Z,83.01
2022-12-24T12:36:47.805Z,81.79
2022-12-24T12:39:14.500Z,82.29
2022-12-24T12:42:08.098Z,81.23
2022-12-24T12:44:56.012Z,81.61
2022-12-24T12:47:33.350Z,81.98
2022-12-24T12:50:08.652Z,81.73
2022-12-24T12:52:59.550Z,80.08
2022-12-24T12:55:44.684Z,78.40
2022-12-24T12:58:39.585Z,77.20
2022-12-24T13:01:16.739Z,77.73
2022-12-24T13:03:46.074Z,76.33
2022-12-24T13:06:45.111Z,75.14
2022-12-24T13:09:23.557Z,74.46
2022-12-24T13:12:27.265Z,73.77
2022-12-24T13:15:07.227Z,74.04
2022-12-24T13:17:39.877Z,74.00
2022-12-24T13:20:15.835Z,75.40
2022-12-24T13:22:50.521Z,73.31
2022-12-24T13:25:29.198Z,74.45
2022-12-24T13:27:55.850Z,75.62
2022-12-24T13:30:40.282Z,75.47
2022-12-24T13:33:11.406Z,75.83
2022-12-24T13:35:57.655Z,76.19
2022-12-24T13:38:27.096Z,76.73
2022-12-24T13:41:13.960Z,77.98
2022-12-24T13:44:03.728Z,77.28
2022-12-24T13:47:08.935Z,77.11
2022-12-24T13:49:44.760Z,77.25
2022-12-24T13:52:11.195Z,78.28
2022-12-24T13:54:40.380Z,78.88
2022-12-24T13:57:48.328Z,77.50
2022-12-24T14:00:20.984Z,78.06
2022-12-24T14:03:03.799Z,77.97
2022-12-24T14:05:36.753Z,77.39
2022-12-24T14:08:07.313Z,76.18
2022-12-24T14:10:38.867Z,75.68
2022-12-24T14:13:10.054Z,74.38
2022-12-24T14:15:48.850Z,74.58
2022-12-24T14:18:24.603Z,76.47
2022-12-24T14:20:54.145Z,76.66
2022-12-24T14:23:49.701Z,75.19
2022-12-24T14:26:22.761Z,74.69
2022-12-24T14:28:55.706Z,75.93
2022-12-24T14:31:22.446Z,75.10
2022-12-24T14:33:49.028Z,76.31
2022-12-24T14:36:21.907Z,76.71
2022-12-24T14:38:49.878Z,77.50
2022-12-24T14:41:28.601Z,77.80
2022-12-24T14:44:22.014Z,78.70
2022-12-24T14:46:56.402Z,79.00
2022-12-24T14:49:47.127Z,79.32
2022-12-24T14:55:47.936Z,80.98
2022-12-24T14:58:35.960Z,81.02
2022-12-24T15:01:37.963Z,81.61
2022-12-24T15:04:10.684Z,82.92
2022-12-24T15:06:49.554Z,82.79
2022-12-24T15:09:20.417Z,83.06
2022-12-24T15:11:49.261Z,83.50
2022-12-24T15:14:17.231Z,83.95
2022-12-24T15:16:54.206Z,84.32
2022-12-24T15:19:24.702Z,84.80
2022-12-24T15:21:51.734Z,85.08
2022-12-24T15:24:33.795Z,85.20
2022-12-24T15:27:03.180Z,85.58
2022-12-24T15:29:32.515Z,85.31
2022-12-24T15:32:01.248Z,85.08
2022-12-24T15:34:34.856Z,85.23
2022-12-24T15:37:04.708Z,85.42
2022-12-24T15:39:31.654Z,86.09
2022-12-24T15:42:13.665Z,86.41
2022-12-24T15:45:09.949Z,86.74
2022-12-24T15:47:44.138Z,86.62
2022-12-24T15:50:29.163Z,87.33
2022-12-24T15:53:19.842Z,87.52
2022-12-24T15:55:47.508Z,87.59
2022-12-24T15:58:18.547Z,88.14
2022-12-24T16:01:00.667Z,88.41
2022-12-24T16:03:27.300Z,88.09
2022-12-24T16:06:07.856Z,88.45
2022-12-24T16:08:36.120Z,88.54
2022-12-24T16:11:05.322Z,88.70
2022-12-24T16:13:35.248Z,88.14
2022-12-24T16:16:16.622Z,88.78
2022-12-24T16:18:53.684Z,88.66
2022-12-24T16:21:30.896Z,88.97
2022-12-24T16:24:06.720Z,87.73
2022-12-24T16:26:34.774Z,87.89
2022-12-24T16:29:01.867Z,88.29
2022-12-24T16:31:35.846Z,88.36
2022-12-24T16:34:03.547Z,88.05
2022-12-24T16:36:31.713Z,87.55
2022-12-24T16:39:17.479Z,87.54
2022-12-24T16:42:03.011Z,87.30
2022-12-24T16:44:29.545Z,87.51
2022-12-24T16:46:56.388Z,87.46
2022-12-24T16:49:23.794Z,87.95
2022-12-24T16:51:50.599Z,87.91
2022-12-24T16:54:17.113Z,88.00
2022-12-24T16:56:44.677Z,87.97
2022-12-24T16:59:23.961Z,87.92
2022-12-24T17:01:52.975Z,88.07
2022-12-24T17:04:20.131Z,88.12
2022-12-24T17:06:49.557Z,88.51
2022-12-24T17:09:17.150Z,88.44
2022-12-24T17:11:43.634Z,88.55
2022-12-24T17:14:19.874Z,88.65
2022-12-24T17:16:47.179Z,88.70
2022-12-24T17:19:13.748Z,89.38
2022-12-24T17:21:40.882Z,89.25
2022-12-24T17:24:08.857Z,89.95
2022-12-24T17:26:36.946Z,90.36
2022-12-24T17:29:22.745Z,90.52
2022-12-24T17:31:49.199Z,90.11
2022-12-24T17:34:15.700Z,91.09
2022-12-24T17:36:42.658Z,91.44
2022-12-24T17:39:09.161Z,91.54
2022-12-24T17:41:35.666Z,90.85
2022-12-24T17:44:02.196Z,90.95
2022-12-24T17:46:28.729Z,91.23
2022-12-24T17:48:55.405Z,91.50
2022-12-24T17:51:23.485Z,91.51
2022-12-24T17:53:50.406Z,91.50
2022-12-24T17:56:18.193Z,91.48
2022-12-24T17:58:46.251Z,91.66
2022-12-24T18:01:18.913Z,91.70
2022-12-24T18:03:46.602Z,91.73
2022-12-24T18:06:14.051Z,91.69
2022-12-24T18:08:42.336Z,91.49
2022-12-24T18:11:24.459Z,91.50
2022-12-24T18:13:51.667Z,91.38
2022-12-24T18:16:28.192Z,91.63
2022-12-24T18:18:55.543Z,92.24
2022-12-24T18:21:24.145Z,92.60
2022-12-24T18:23:52.116Z,93.12
2022-12-24T18:26:20.099Z,93.72
2022-12-24T18:28:47.466Z,93.79
2022-12-24T18:31:17.157Z,93.70
2022-12-24T18:33:45.443Z,93.53
2022-12-24T18:36:12.558Z,93.82
2022-12-24T18:38:39.288Z,93.52
2022-12-24T18:41:10.472Z,93.65
2022-12-24T18:43:37.184Z,93.61
2022-12-24T18:46:08.501Z,93.58
2022-12-24T18:48:35.400Z,93.68
2022-12-24T18:51:02.149Z,93.57
2022-12-24T18:53:28.634Z,93.57
2022-12-24T18:55:55.174Z,93.29
2022-12-24T18:58:21.716Z,93.18
2022-12-24T19:00:48.324Z,93.36
2022-12-24T19:03:16.757Z,93.26
2022-12-24T19:05:43.475Z,93.48
2022-12-24T19:08:37.677Z,93.39
2022-12-24T19:10:56.475Z,93.64
2022-12-24T19:13:22.959Z,93.68
2022-12-24T19:15:49.447Z,93.56
2022-12-24T19:18:15.992Z,93.50
2022-12-24T19:20:42.568Z,93.40
2022-12-24T19:23:09.200Z,93.16
2022-12-24T19:25:35.901Z,93.21
2022-12-24T19:28:08.559Z,93.22
2022-12-24T19:30:40.877Z,93.24
2022-12-24T19:33:07.697Z,93.44
2022-12-24T19:35:34.421Z,93.55
2022-12-24T19:38:01.257Z,93.40
2022-12-24T19:40:28.104Z,93.51
2022-12-24T19:42:54.785Z,93.47
2022-12-24T19:45:22.524Z,93.54
2022-12-24T19:47:49.944Z,93.44
2022-12-24T19:50:17.549Z,93.62
2022-12-24T19:52:44.469Z,93.83
2022-12-24T19:55:11.920Z,93.93
2022-12-24T19:57:39.674Z,93.95
2022-12-24T20:00:10.142Z,93.75
2022-12-24T20:02:36.992Z,93.68
2022-12-24T20:05:04.810Z,93.80
2022-12-24T20:07:31.397Z,93.75
2022-12-24T20:09:58.120Z,93.88
2022-12-24T20:12:24.649Z,94.28
2022-12-24T20:14:51.182Z,94.59
2022-12-24T20:17:17.711Z,94.41
2022-12-24T20:19:44.246Z,94.60
2022-12-24T20:22:10.798Z,94.21
2022-12-24T20:24:37.261Z,94.26
2022-12-24T20:27:03.808Z,94.30
2022-12-24T20:29:30.376Z,93.95
2022-12-24T20:31:56.951Z,94.55
2022-12-24T20:34:23.481Z,94.76
2022-12-24T20:36:50.014Z,95.11
2022-12-24T20:39:17.013Z,95.20
2022-12-24T20:41:43.556Z,95.50
2022-12-24T20:44:10.799Z,95.26
2022-12-24T20:46:37.343Z,95.21
2022-12-24T20:49:05.251Z,95.41
2022-12-24T20:51:32.152Z,95.34
2022-12-24T20:54:01.516Z,95.35
2022-12-24T20:56:29.290Z,95.25
2022-12-24T20:58:55.876Z,95.25
2022-12-24T21:01:25.761Z,95.26
2022-12-24T21:03:54.237Z,95.18
2022-12-24T21:06:21.889Z,95.20
2022-12-24T21:08:50.053Z,95.18
2022-12-24T21:11:35.780Z,95.21
2022-12-24T21:14:02.400Z,95.04
2022-12-24T21:16:31.045Z,94.89
2022-12-24T21:18:57.717Z,95.06
2022-12-24T21:21:24.274Z,94.85
2022-12-24T21:23:50.766Z,95.11
2022-12-24T21:26:17.238Z,95.04
2022-12-24T21:28:45.346Z,95.26
2022-12-24T21:31:14.074Z,95.33
2022-12-24T21:33:41.276Z,95.13
2022-12-24T21:36:08.444Z,95.25
2022-12-24T21:38:35.278Z,95.41
2022-12-24T21:41:04.793Z,95.86
2022-12-24T21:43:32.971Z,96.20
2022-12-24T21:45:59.725Z,97.26
2022-12-24T21:48:45.595Z,97.42
2022-12-24T21:51:12.152Z,98.22
2022-12-24T21:53:57.386Z,98.24
2022-12-24T21:56:23.893Z,98.25
2022-12-24T21:58:50.903Z,98.29
2022-12-24T22:01:18.291Z,98.34
2022-12-24T22:03:48.807Z,98.64
2022-12-24T22:06:35.406Z,98.01
2022-12-24T22:09:21.241Z,97.91
2022-12-24T22:11:53.815Z,97.82
2022-12-24T22:14:21.372Z,97.58
2022-12-24T22:16:47.904Z,97.57
2022-12-24T22:19:14.484Z,97.42
2022-12-24T22:21:40.978Z,97.33
2022-12-24T22:24:08.060Z,97.82
2022-12-24T22:26:34.540Z,98.30
2022-12-24T22:29:04.724Z,97.63
2022-12-24T22:31:32.576Z,97.50
2022-12-24T22:33:59.694Z,97.36
2022-12-24T22:36:26.496Z,97.10
2022-12-24T22:38:53.180Z,97.17
2022-12-24T22:41:20.289Z,96.94
2022-12-24T22:43:49.070Z,96.93
2022-12-24T22:46:15.735Z,96.82
2022-12-24T22:48:43.807Z,96.84
2022-12-24T22:51:24.163Z,96.98
2022-12-24T22:53:50.847Z,96.88
2022-12-24T22:56:20.450Z,96.91
2022-12-24T22:58:48.357Z,96.86
2022-12-24T23:01:14.921Z,97.19
2022-12-24T23:03:41.679Z,96.96
2022-12-24T23:06:08.235Z,96.81
2022-12-24T23:08:36.822Z,96.67
2022-12-24T23:11:13.470Z,96.73
2022-12-24T23:14:01.333Z,96.58
2022-12-24T23:16:29.475Z,96.92
2022-12-24T23:18:58.250Z,96.81
2022-12-24T23:21:25.747Z,96.67
2022-12-24T23:23:52.839Z,96.47
2022-12-24T23:26:21.556Z,100.00
2022-12-24T23:28:48.913Z,100.00
2022-12-24T23:31:16.707Z,100.00
2022-12-24T23:33:43.236Z,99.52
2022-12-24T23:36:10.011Z,98.18
2022-12-24T23:38:36.543Z,97.57
2022-12-24T23:41:06.093Z,97.43
2022-12-24T23:43:33.409Z,99.77
2022-12-24T23:46:00.066Z,100.00
2022-12-24T23:48:27.413Z,100.00
2022-12-24T23:51:07.232Z,100.00
2022-12-24T23:53:34.212Z,100.00
2022-12-24T23:56:00.917Z,100.00
2022-12-24T23:58:27.777Z,100.00
